Time;durP1;ratioP1;P1;durP2;ratioP2;P2;SDS_P1;SDS_P2;PMS_P1;PMS_P2;Temp;Humidity;BMP_temperature;BMP_pressure;BME280_temperature;BME280_humidity;BME280_pressure;Samples;Min_cycle;Max_cycle;Signal;HPM_P1;HPM_P2
2021/04/10 00:01:35;;;;;;;2.37;1.40;;;9.80;65.90;;;;;;5035109;28;20478;-81
2021/04/10 00:04:03;;;;;;;2.20;1.80;;;9.80;66.00;;;;;;5034893;28;20820;-82
2021/04/10 00:06:30;;;;;;;2.07;1.43;;;9.80;66.10;;;;;;5034570;28;20984;-81
2021/04/10 00:08:56;;;;;;;4.00;1.50;;;9.70;66.70;;;;;;5034455;28;20450;-82
2021/04/10 00:11:22;;;;;;;2.30;2.10;;;9.70;68.20;;;;;;5034558;28;20458;-82
2021/04/10 00:13:48;;;;;;;2.53;1.80;;;9.70;68.70;;;;;;5034492;28;20869;-82
2021/04/10 00:16:15;;;;;;;3.03;1.30;;;9.60;68.60;;;;;;5034575;28;20526;-82
2021/04/10 00:18:41;;;;;;;2.70;1.50;;;9.60;69.10;;;;;;5034246;28;20479;-82
2021/04/10 00:21:08;;;;;;;2.33;1.50;;;9.60;67.80;;;;;;5034383;28;20841;-82
2021/04/10 00:23:34;;;;;;;3.60;1.70;;;9.60;68.70;;;;;;5034519;28;20455;-81
2021/04/10 00:26:01;;;;;;;5.23;1.43;;;9.60;67.60;;;;;;5034449;28;20457;-82
2021/04/10 00:28:27;;;;;;;3.73;1.63;;;9.60;67.70;;;;;;5034392;28;20451;-82
2021/04/10 00:31:06;;;;;;;3.03;1.63;;;9.60;67.20;;;;;;5034033;28;20566;-82
2021/04/10 00:33:32;;;;;;;1.63;1.50;;;9.60;67.50;;;;;;5034010;28;20930;-82
2021/04/10 00:35:58;;;;;;;2.47;2.27;;;9.60;66.10;;;;;;5034067;28;20486;-82
2021/04/10 00:38:27;;;;;;;3.43;1.70;;;9.70;66.70;;;;;;5034177;28;20557;-82
2021/04/10 00:40:53;;;;;;;2.07;1.57;;;9.70;66.50;;;;;;5033880;28;20483;-82
2021/04/10 00:43:19;;;;;;;1.30;1.20;;;9.70;65.80;;;;;;5034141;28;20450;-82
2021/04/10 00:45:46;;;;;;;2.50;1.67;;;9.80;66.30;;;;;;5034059;28;20451;-82
2021/04/10 00:48:12;;;;;;;2.93;1.37;;;9.80;66.60;;;;;;5034084;28;20451;-82
2021/04/10 00:50:38;;;;;;;2.53;1.20;;;9.80;65.10;;;;;;5034213;28;20470;-81
2021/04/10 00:53:04;;;;;;;2.93;1.10;;;9.80;65.70;;;;;;5033607;28;20493;-82
2021/04/10 00:55:32;;;;;;;1.30;1.20;;;9.90;65.60;;;;;;5033324;28;20840;-81
2021/04/10 00:57:59;;;;;;;3.80;1.73;;;9.90;65.40;;;;;;5033485;28;20485;-81
2021/04/10 01:00:25;;;;;;;2.80;1.30;;;9.90;65.20;;;;;;5033681;28;20474;-82
2021/04/10 01:02:52;;;;;;;2.93;1.73;;;10.00;65.10;;;;;;5033778;28;20509;-82
2021/04/10 01:05:18;;;;;;;2.07;1.40;;;9.90;65.90;;;;;;5033469;28;20946;-82
2021/04/10 01:07:44;;;;;;;4.00;1.30;;;10.00;64.90;;;;;;5034017;28;20458;-82
2021/04/10 01:10:12;;;;;;;3.60;1.60;;;9.90;65.80;;;;;;5033428;28;20458;-82
2021/04/10 01:12:51;;;;;;;1.50;1.40;;;9.90;66.00;;;;;;5033775;28;20443;-82
2021/04/10 01:15:24;;;;;;;2.00;1.20;;;10.00;65.60;;;;;;5033743;28;20426;-82
2021/04/10 01:17:55;;;;;;;3.97;1.37;;;10.00;65.00;;;;;;5033491;28;20471;-82
2021/04/10 01:20:56;;;;;;;3.87;1.40;;;10.00;65.60;;;;;;5033453;28;20984;-81
2021/04/10 01:23:42;;;;;;;2.70;1.07;;;10.00;65.50;;;;;;5033425;28;20447;-82
2021/04/10 01:26:18;;;;;;;1.30;1.20;;;10.00;65.00;;;;;;5033429;28;20439;-82
2021/04/10 01:28:54;;;;;;;2.13;1.87;;;9.90;66.40;;;;;;5033052;28;20431;-82
2021/04/10 01:31:25;;;;;;;1.70;1.20;;;9.90;66.60;;;;;;5033510;28;20455;-82
2021/04/10 01:33:55;;;;;;;1.30;1.17;;;9.90;66.60;;;;;;5033353;28;20415;-81
2021/04/10 01:36:25;;;;;;;2.50;1.60;;;9.90;66.80;;;;;;5032922;28;20475;-82
2021/04/10 01:38:52;;;;;;;3.03;1.33;;;9.90;67.20;;;;;;5033001;28;20977;-82
2021/04/10 01:41:21;;;;;;;4.30;1.40;;;9.90;67.00;;;;;;5033355;28;20466;-82
2021/04/10 01:43:49;;;;;;;1.10;1.03;;;9.90;66.70;;;;;;5033324;28;20458;-82
2021/04/10 01:46:18;;;;;;;2.37;1.33;;;9.80;66.90;;;;;;5033089;28;20934;-83
2021/04/10 01:48:46;;;;;;;2.23;1.00;;;9.80;67.80;;;;;;5033041;28;20450;-82
2021/04/10 01:51:14;;;;;;;1.33;1.20;;;9.90;67.00;;;;;;5033300;28;20470;-82
2021/04/10 01:53:41;;;;;;;1.20;1.10;;;9.90;67.10;;;;;;5033154;28;20435;-82
2021/04/10 01:56:10;;;;;;;1.73;1.23;;;9.90;67.30;;;;;;5033124;28;20457;-81
2021/04/10 01:58:38;;;;;;;1.40;1.10;;;9.80;67.40;;;;;;5033095;28;20493;-82
2021/04/10 02:01:05;;;;;;;1.30;1.20;;;9.80;67.50;;;;;;5033170;28;20478;-82
2021/04/10 02:03:33;;;;;;;1.30;1.10;;;9.80;68.20;;;;;;5032843;28;20965;-82
2021/04/10 02:06:01;;;;;;;2.93;1.00;;;9.80;68.40;;;;;;5033702;28;20449;-82
2021/04/10 02:08:29;;;;;;;3.13;1.10;;;9.90;68.30;;;;;;5037229;28;20969;-82
2021/04/10 02:10:57;;;;;;;1.80;1.13;;;9.90;68.40;;;;;;5037289;28;20509;-82
2021/04/10 02:13:24;;;;;;;2.50;1.00;;;9.90;68.90;;;;;;5037002;28;20455;-82
2021/04/10 02:15:51;;;;;;;5.17;1.00;;;9.90;68.60;;;;;;5036821;28;20445;-82
2021/04/10 02:18:18;;;;;;;1.90;0.90;;;9.90;69.90;;;;;;5036694;28;20474;-82
2021/04/10 02:20:45;;;;;;;3.90;1.20;;;9.90;68.80;;;;;;5036854;28;20462;-82
2021/04/10 02:23:13;;;;;;;1.50;0.90;;;9.90;69.00;;;;;;5037046;28;20453;-82
2021/04/10 02:25:39;;;;;;;1.67;1.20;;;9.90;69.40;;;;;;5036836;28;20434;-82
2021/04/10 02:28:05;;;;;;;4.93;1.00;;;9.90;69.50;;;;;;5036762;28;20446;-81
2021/04/10 02:30:32;;;;;;;1.43;1.00;;;10.00;68.40;;;;;;5036389;28;20454;-81
2021/04/10 02:33:02;;;;;;;3.90;1.00;;;10.10;67.90;;;;;;5036383;28;20945;-80
2021/04/10 02:35:36;;;;;;;1.00;0.90;;;10.10;68.00;;;;;;5036570;28;20775;-81
2021/04/10 02:38:05;;;;;;;1.57;1.23;;;10.10;68.00;;;;;;5036620;28;20474;-81
2021/04/10 02:40:35;;;;;;;2.03;1.20;;;10.10;68.00;;;;;;5036652;28;20470;-81
2021/04/10 02:43:06;;;;;;;1.10;1.03;;;10.10;68.30;;;;;;5036546;28;20496;-80
2021/04/10 02:45:33;;;;;;;2.10;1.10;;;10.00;67.90;;;;;;5036487;28;20803;-82
2021/04/10 02:48:03;;;;;;;1.17;1.10;;;10.00;68.90;;;;;;5036190;28;21000;-81
2021/04/10 02:50:30;;;;;;;3.33;1.00;;;10.00;68.70;;;;;;5036275;28;20915;-81
2021/04/10 02:52:58;;;;;;;4.83;1.23;;;10.10;68.60;;;;;;5036446;28;20441;-81
2021/04/10 02:55:32;;;;;;;1.30;1.00;;;10.10;68.50;;;;;;5036311;28;20438;-81
2021/04/10 02:58:01;;;;;;;1.13;1.00;;;10.20;68.20;;;;;;5036002;28;21008;-81
2021/04/10 03:00:28;;;;;;;1.37;0.90;;;10.20;68.60;;;;;;5036414;28;20455;-81
2021/04/10 03:02:57;;;;;;;1.30;1.10;;;10.10;69.50;;;;;;5036016;28;20461;-81
2021/04/10 03:05:23;;;;;;;2.13;1.00;;;10.10;68.90;;;;;;5035966;28;20456;-81
2021/04/10 03:07:52;;;;;;;1.00;0.97;;;10.10;69.00;;;;;;5035975;28;20469;-81
2021/04/10 03:10:19;;;;;;;3.83;1.00;;;10.20;69.30;;;;;;5035679;28;20970;-80
2021/04/10 03:12:47;;;;;;;0.80;0.80;;;10.20;68.70;;;;;;5035782;28;20461;-81
2021/04/10 03:15:14;;;;;;;1.73;0.90;;;10.10;69.20;;;;;;5035467;28;20823;-80
2021/04/10 03:17:42;;;;;;;5.20;1.43;;;10.20;69.40;;;;;;5035214;28;20474;-81
2021/04/10 03:20:12;;;;;;;1.00;0.90;;;10.10;69.90;;;;;;5035643;28;20512;-81
2021/04/10 03:22:41;;;;;;;0.90;0.90;;;10.10;70.10;;;;;;5035584;28;20434;-81
2021/04/10 03:25:09;;;;;;;1.77;1.10;;;10.20;70.00;;;;;;5035756;28;20455;-81
2021/04/10 03:27:36;;;;;;;1.23;0.93;;;10.20;70.40;;;;;;5035295;28;20450;-81
2021/04/10 03:30:04;;;;;;;1.90;0.90;;;10.20;70.60;;;;;;5035356;28;20457;-81
2021/04/10 03:32:32;;;;;;;1.07;0.80;;;10.20;70.90;;;;;;5035468;28;20473;-81
2021/04/10 03:34:59;;;;;;;1.83;0.93;;;10.20;70.90;;;;;;5035337;28;20453;-81
2021/04/10 03:37:25;;;;;;;1.57;0.83;;;10.20;71.30;;;;;;5035011;28;20494;-81
2021/04/10 03:39:52;;;;;;;2.50;0.87;;;10.20;72.50;;;;;;5034921;28;20883;-81
2021/04/10 03:42:22;;;;;;;1.27;1.00;;;10.10;72.60;;;;;;5035464;28;20447;-81
2021/04/10 03:44:48;;;;;;;1.07;0.90;;;10.10;73.50;;;;;;5035191;28;20439;-81
2021/04/10 03:47:15;;;;;;;1.40;1.10;;;10.10;73.10;;;;;;5034894;28;20954;-81
2021/04/10 03:49:41;;;;;;;1.10;1.00;;;10.10;72.70;;;;;;5034970;28;20811;-81
2021/04/10 03:52:08;;;;;;;1.40;1.30;;;10.10;72.80;;;;;;5035231;28;20474;-81
2021/04/10 03:54:34;;;;;;;3.13;1.20;;;10.10;73.00;;;;;;5035171;28;20508;-81
2021/04/10 03:57:01;;;;;;;1.10;0.90;;;10.20;73.10;;;;;;5035157;28;20516;-81
2021/04/10 03:59:28;;;;;;;2.50;1.10;;;10.20;73.90;;;;;;5034891;28;20447;-81
2021/04/10 04:01:54;;;;;;;3.30;0.83;;;10.20;73.50;;;;;;5034965;28;20470;-81
2021/04/10 04:04:21;;;;;;;1.50;1.10;;;10.20;73.40;;;;;;5035182;28;20466;-81
2021/04/10 04:06:47;;;;;;;1.10;0.90;;;10.10;73.90;;;;;;5035058;28;20446;-81
2021/04/10 04:09:13;;;;;;;7.60;1.00;;;10.10;74.10;;;;;;5035030;28;20446;-81
2021/04/10 04:11:40;;;;;;;1.80;1.20;;;10.10;74.50;;;;;;5034930;28;20494;-81
2021/04/10 04:14:06;;;;;;;1.73;0.80;;;10.10;75.00;;;;;;5034589;28;20454;-81
2021/04/10 04:16:32;;;;;;;1.47;0.90;;;10.10;75.30;;;;;;5034835;28;20451;-81
2021/04/10 04:18:58;;;;;;;1.07;0.90;;;10.10;74.70;;;;;;5034509;28;20489;-81
2021/04/10 04:21:26;;;;;;;2.10;0.90;;;10.10;74.80;;;;;;5034753;28;20481;-81
2021/04/10 04:23:52;;;;;;;2.13;1.10;;;10.10;74.70;;;;;;5034451;28;20431;-81
2021/04/10 04:26:18;;;;;;;1.83;1.17;;;10.00;75.10;;;;;;5034628;28;20446;-81
2021/04/10 04:28:44;;;;;;;2.73;1.20;;;10.10;74.20;;;;;;5033952;28;20867;-81
2021/04/10 04:31:10;;;;;;;1.13;0.70;;;10.10;73.80;;;;;;5034518;28;20477;-81
2021/04/10 04:33:37;;;;;;;0.87;0.80;;;10.10;74.00;;;;;;5034218;28;20843;-81
2021/04/10 04:36:04;;;;;;;0.80;0.80;;;10.00;73.70;;;;;;5033927;28;20486;-81
2021/04/10 04:38:31;;;;;;;1.97;0.80;;;10.00;73.70;;;;;;5033930;28;20893;-81
2021/04/10 04:40:57;;;;;;;1.50;0.70;;;9.90;75.40;;;;;;5034128;28;20471;-81
2021/04/10 04:43:23;;;;;;;1.53;0.97;;;9.90;75.60;;;;;;5034002;28;20441;-81
2021/04/10 04:45:50;;;;;;;2.17;1.13;;;9.90;76.00;;;;;;5034066;28;20450;-81
2021/04/10 04:48:16;;;;;;;1.30;1.20;;;9.80;77.30;;;;;;5034093;28;20950;-81
2021/04/10 04:50:42;;;;;;;1.53;0.90;;;9.80;79.30;;;;;;5033792;28;20474;-81
2021/04/10 04:53:08;;;;;;;0.80;0.80;;;9.70;80.70;;;;;;5034089;28;20451;-81
2021/04/10 04:55:35;;;;;;;1.23;1.10;;;9.60;83.50;;;;;;5034119;28;20512;-81
2021/04/10 04:58:02;;;;;;;1.10;0.90;;;9.50;85.90;;;;;;5033598;28;21075;-81
2021/04/10 05:00:28;;;;;;;3.00;1.20;;;9.40;89.10;;;;;;5034528;28;20470;-81
2021/04/10 05:02:55;;;;;;;2.60;1.60;;;9.30;90.50;;;;;;5033932;28;20463;-80
2021/04/10 05:05:21;;;;;;;2.70;1.10;;;9.20;92.20;;;;;;5033889;28;20451;-81
2021/04/10 05:07:47;;;;;;;2.03;1.60;;;9.20;92.60;;;;;;5033658;28;20450;-81
2021/04/10 05:10:13;;;;;;;1.67;1.13;;;9.10;93.90;;;;;;5033638;28;20477;-81
2021/04/10 05:12:40;;;;;;;1.27;1.17;;;9.00;95.10;;;;;;5033504;28;20431;-81
2021/04/10 05:15:08;;;;;;;0.97;0.90;;;9.00;95.70;;;;;;5033750;28;20505;-81
2021/04/10 05:17:34;;;;;;;0.90;0.90;;;9.00;96.10;;;;;;5033370;28;20471;-81
2021/04/10 05:20:00;;;;;;;1.63;1.00;;;9.00;96.40;;;;;;5033282;28;20954;-81
2021/04/10 05:22:26;;;;;;;1.13;1.13;;;9.10;97.80;;;;;;5033658;28;20777;-81
2021/04/10 05:24:53;;;;;;;1.60;1.40;;;9.00;98.50;;;;;;5033628;28;20446;-80
2021/04/10 05:27:19;;;;;;;1.60;1.50;;;9.10;98.80;;;;;;5033532;28;20451;-81
2021/04/10 05:29:46;;;;;;;1.53;0.90;;;9.10;99.30;;;;;;5033478;28;20442;-81
2021/04/10 05:32:12;;;;;;;2.40;1.10;;;9.20;99.70;;;;;;5033349;28;20467;-81
2021/04/10 05:34:40;;;;;;;4.90;1.40;;;9.20;99.60;;;;;;5033338;28;20458;-81
2021/04/10 05:37:06;;;;;;;1.63;0.90;;;9.10;99.10;;;;;;5033148;28;20847;-81
2021/04/10 05:39:32;;;;;;;1.00;0.90;;;9.10;99.50;;;;;;5033014;28;20485;-81
2021/04/10 05:41:59;;;;;;;3.97;1.20;;;9.10;99.10;;;;;;5033066;28;20885;-81
2021/04/10 05:44:25;;;;;;;4.50;1.00;;;9.20;98.70;;;;;;5033195;28;20462;-81
2021/04/10 05:46:52;;;;;;;2.07;1.47;;;9.20;98.70;;;;;;5033216;28;20465;-81
2021/04/10 05:49:18;;;;;;;2.27;1.10;;;9.20;98.50;;;;;;5033230;28;20504;-81
2021/04/10 05:51:44;;;;;;;3.70;1.17;;;9.20;98.70;;;;;;5033125;28;20475;-81
2021/04/10 05:54:11;;;;;;;0.83;0.80;;;9.20;97.50;;;;;;5033211;28;20859;-81
2021/04/10 05:56:37;;;;;;;2.90;0.97;;;9.30;97.50;;;;;;5033144;28;20454;-81
2021/04/10 05:59:04;;;;;;;2.33;1.10;;;9.30;97.20;;;;;;5033029;28;20488;-81
2021/04/10 06:01:30;;;;;;;1.60;1.33;;;9.30;97.40;;;;;;5033010;28;20455;-81
2021/04/10 06:03:58;;;;;;;1.53;1.10;;;9.30;97.50;;;;;;5032802;28;20451;-81
2021/04/10 06:06:24;;;;;;;1.60;1.00;;;9.30;97.60;;;;;;5033213;28;20532;-81
2021/04/10 06:08:51;;;;;;;1.17;1.00;;;9.30;96.90;;;;;;5032877;28;20439;-81
2021/04/10 06:11:18;;;;;;;2.90;1.17;;;9.30;97.30;;;;;;5032739;28;20455;-81
2021/04/10 06:13:44;;;;;;;5.60;1.10;;;9.30;97.10;;;;;;5033049;28;20783;-80
2021/04/10 06:16:11;;;;;;;2.60;1.40;;;9.40;97.20;;;;;;5032704;28;20510;-81
2021/04/10 06:18:37;;;;;;;1.70;1.00;;;9.50;97.20;;;;;;5032828;28;20487;-81
2021/04/10 06:21:06;;;;;;;1.67;0.90;;;9.50;97.30;;;;;;5032899;28;20470;-80
2021/04/10 06:23:32;;;;;;;1.77;0.90;;;9.60;97.10;;;;;;5032912;28;20960;-81
2021/04/10 06:25:59;;;;;;;1.00;0.90;;;9.60;97.20;;;;;;5033008;28;20458;-81
2021/04/10 06:28:25;;;;;;;1.40;1.30;;;9.60;97.30;;;;;;5032958;28;20454;-81
2021/04/10 06:30:51;;;;;;;1.90;1.00;;;9.60;97.80;;;;;;5032490;28;20470;-81
2021/04/10 06:33:20;;;;;;;1.77;1.00;;;9.60;97.70;;;;;;5032848;28;20450;-81
2021/04/10 06:35:46;;;;;;;1.70;1.30;;;9.60;97.50;;;;;;5032681;28;20826;-81
2021/04/10 06:38:13;;;;;;;0.97;0.90;;;9.50;98.20;;;;;;5033294;28;20829;-81
2021/04/10 06:40:41;;;;;;;3.03;1.60;;;9.50;98.00;;;;;;5032387;28;20455;-81
2021/04/10 06:43:07;;;;;;;1.90;1.10;;;9.50;98.40;;;;;;5032788;28;20442;-81
2021/04/10 06:45:33;;;;;;;2.00;1.10;;;9.50;98.10;;;;;;5032695;28;20819;-81
2021/04/10 06:48:02;;;;;;;2.60;1.07;;;9.60;98.20;;;;;;5032656;28;20446;-81
2021/04/10 06:50:29;;;;;;;1.40;1.20;;;9.50;98.00;;;;;;5033048;28;20470;-81
2021/04/10 06:52:57;;;;;;;3.20;1.17;;;9.50;98.30;;;;;;5034554;28;20442;-81
2021/04/10 06:55:25;;;;;;;1.10;0.90;;;9.50;98.20;;;;;;5036277;28;20453;-81
2021/04/10 06:57:57;;;;;;;0.93;0.93;;;9.70;98.10;;;;;;5036001;28;20485;-81
2021/04/10 07:00:25;;;;;;;2.00;1.00;;;9.70;97.90;;;;;;5036297;28;20500;-80
2021/04/10 07:02:53;;;;;;;1.77;0.87;;;9.60;98.40;;;;;;5036249;28;20492;-81
2021/04/10 07:05:21;;;;;;;1.47;0.80;;;9.60;98.40;;;;;;5036274;28;20469;-81
2021/04/10 07:07:48;;;;;;;1.43;1.17;;;9.60;98.40;;;;;;5035890;28;20941;-82
2021/04/10 07:10:15;;;;;;;3.07;0.90;;;9.60;98.80;;;;;;5036054;28;21004;-82
2021/04/10 07:12:42;;;;;;;1.20;1.10;;;9.70;98.20;;;;;;5036262;28;20847;-82
2021/04/10 07:15:11;;;;;;;1.53;0.90;;;9.70;98.30;;;;;;5036033;28;20411;-82
2021/04/10 07:17:37;;;;;;;1.20;1.10;;;9.70;98.40;;;;;;5035833;28;20467;-82
2021/04/10 07:20:22;;;;;;;1.47;1.10;;;9.80;98.50;;;;;;5036615;28;20443;-82
2021/04/10 07:23:00;;;;;;;3.03;1.43;;;9.90;98.80;;;;;;5035659;28;20412;-81
2021/04/10 07:25:28;;;;;;;1.10;1.10;;;10.00;97.60;;;;;;5035618;28;20828;-82
2021/04/10 07:27:55;;;;;;;2.30;1.20;;;10.00;97.50;;;;;;5035876;28;20493;-82
2021/04/10 07:30:22;;;;;;;1.63;1.00;;;10.00;97.50;;;;;;5035393;28;20825;-81
2021/04/10 07:32:49;;;;;;;1.27;1.00;;;10.00;97.80;;;;;;5035644;28;20427;-82
2021/04/10 07:35:17;;;;;;;1.20;1.10;;;10.10;98.70;;;;;;5035552;28;20816;-82
2021/04/10 07:37:46;;;;;;;0.90;0.70;;;10.00;99.50;;;;;;5035948;28;20545;-82
2021/04/10 07:40:17;;;;;;;1.10;1.00;;;9.90;99.90;;;;;;5035659;28;20501;-82
2021/04/10 07:42:45;;;;;;;2.10;1.30;;;9.90;99.90;;;;;;5035514;28;20914;-82
2021/04/10 07:45:28;;;;;;;2.00;1.10;;;9.90;99.90;;;;;;5035205;28;20930;-82
2021/04/10 07:48:02;;;;;;;0.70;0.70;;;9.80;99.90;;;;;;5035493;28;20508;-82
2021/04/10 07:50:30;;;;;;;1.60;1.10;;;9.90;99.90;;;;;;5035362;28;20478;-82
2021/04/10 07:52:56;;;;;;;1.03;0.90;;;9.90;99.90;;;;;;5035355;28;20442;-82
2021/04/10 07:55:40;;;;;;;0.80;0.80;;;9.90;99.90;;;;;;5035295;28;20458;-82
2021/04/10 07:58:25;;;;;;;1.50;1.00;;;10.00;99.90;;;;;;5034982;28;20459;-82
2021/04/10 08:00:54;;;;;;;2.50;1.00;;;10.00;99.90;;;;;;5035139;28;20466;-82
2021/04/10 08:03:30;;;;;;;1.03;0.90;;;10.10;99.90;;;;;;5034330;28;20446;-82
2021/04/10 08:06:12;;;;;;;5.97;1.10;;;10.20;99.90;;;;;;5034612;28;20960;-81
2021/04/10 08:08:47;;;;;;;5.33;1.17;;;10.20;99.90;;;;;;5033373;28;20455;-82
2021/04/10 08:11:14;;;;;;;1.03;1.00;;;10.20;99.90;;;;;;5034980;28;20461;-82
2021/04/10 08:13:53;;;;;;;1.93;1.27;;;10.20;99.90;;;;;;5034682;28;20818;-82
2021/04/10 08:16:22;;;;;;;1.20;0.93;;;10.30;99.90;;;;;;5034996;28;20519;-82
2021/04/10 08:18:51;;;;;;;3.93;1.00;;;10.20;99.90;;;;;;5034449;28;20817;-82
2021/04/10 08:21:18;;;;;;;3.33;1.00;;;10.20;99.90;;;;;;5034743;28;20473;-82
2021/04/10 08:23:44;;;;;;;1.13;0.90;;;10.40;99.90;;;;;;5034733;28;20444;-82
2021/04/10 08:26:11;;;;;;;1.13;0.87;;;10.40;99.90;;;;;;5034659;28;20462;-82
2021/04/10 08:28:37;;;;;;;1.73;1.00;;;10.40;99.90;;;;;;5034661;28;20443;-82
2021/04/10 08:31:04;;;;;;;1.20;0.90;;;10.40;99.90;;;;;;5034484;28;20466;-82
2021/04/10 08:33:32;;;;;;;2.60;1.00;;;10.50;99.90;;;;;;5034354;28;20407;-81
2021/04/10 08:36:00;;;;;;;1.60;0.80;;;10.40;99.90;;;;;;5034083;28;21055;-81
2021/04/10 08:38:28;;;;;;;0.70;0.70;;;10.50;99.90;;;;;;5034433;28;20485;-82
2021/04/10 08:40:57;;;;;;;0.80;0.80;;;10.50;99.90;;;;;;5034405;28;20477;-81
2021/04/10 08:43:25;;;;;;;2.40;0.90;;;10.60;99.90;;;;;;5034378;28;20457;-82
2021/04/10 08:45:54;;;;;;;1.50;0.87;;;10.60;99.90;;;;;;5034384;28;20454;-82
2021/04/10 08:48:21;;;;;;;1.57;0.90;;;10.70;99.50;;;;;;5034061;28;20438;-82
2021/04/10 08:50:51;;;;;;;1.17;1.07;;;10.70;99.70;;;;;;5034395;28;20463;-82
2021/04/10 08:53:21;;;;;;;1.53;0.70;;;10.80;99.30;;;;;;5034029;28;20526;-82
2021/04/10 08:55:49;;;;;;;0.70;0.70;;;10.90;98.70;;;;;;5033941;28;20419;-82
2021/04/10 08:58:22;;;;;;;0.90;0.90;;;11.00;98.90;;;;;;5033829;28;20470;-82
2021/04/10 09:00:57;;;;;;;2.80;0.90;;;11.00;97.70;;;;;;5033787;28;20849;-82
2021/04/10 09:03:52;;;;;;;1.13;0.87;;;11.30;97.10;;;;;;5034040;28;20461;-82
2021/04/10 09:06:49;;;;;;;1.53;0.90;;;11.50;96.40;;;;;;5033954;28;20446;-82
2021/04/10 09:09:31;;;;;;;1.10;1.10;;;12.20;96.20;;;;;;5033128;28;20438;-81
2021/04/10 09:12:24;;;;;;;0.70;0.70;;;12.60;93.70;;;;;;5033043;28;20482;-81
2021/04/10 09:14:50;;;;;;;1.63;1.10;;;12.60;92.30;;;;;;5032730;28;20446;-81
2021/04/10 09:17:17;;;;;;;1.40;0.67;;;12.60;91.90;;;;;;5033577;28;20909;-80
2021/04/10 09:19:43;;;;;;;1.17;0.60;;;12.80;91.50;;;;;;5033808;28;20435;-80
2021/04/10 09:22:16;;;;;;;0.80;0.80;;;12.80;91.10;;;;;;5033394;28;20473;-81
2021/04/10 09:24:45;;;;;;;0.83;0.70;;;12.90;90.40;;;;;;5033807;28;20407;-81
2021/04/10 09:27:18;;;;;;;0.70;0.70;;;12.90;90.40;;;;;;5033660;28;20518;-81
2021/04/10 09:29:56;;;;;;;0.70;0.70;;;12.90;90.00;;;;;;5034061;28;20851;-81
2021/04/10 09:32:34;;;;;;;1.07;0.60;;;13.00;89.70;;;;;;5033385;28;20420;-80
2021/04/10 09:35:03;;;;;;;1.23;0.70;;;12.90;87.50;;;;;;5033273;28;20929;-81
2021/04/10 09:37:59;;;;;;;0.60;0.60;;;13.10;88.80;;;;;;5033327;28;20467;-80
2021/04/10 09:40:50;;;;;;;1.33;0.70;;;13.10;86.30;;;;;;5033410;28;20470;-81
2021/04/10 09:43:19;;;;;;;0.70;0.70;;;13.00;85.80;;;;;;5033344;28;20802;-81
2021/04/10 09:45:47;;;;;;;3.70;0.57;;;13.10;84.90;;;;;;5033408;28;20446;-80
2021/04/10 09:48:24;;;;;;;1.13;0.70;;;12.80;85.60;;;;;;5033394;28;20419;-80
2021/04/10 09:51:03;;;;;;;0.80;0.80;;;12.80;86.70;;;;;;5033368;28;20450;-80
2021/04/10 09:53:31;;;;;;;1.23;0.70;;;12.80;85.80;;;;;;5033634;28;20442;-80
2021/04/10 09:56:03;;;;;;;0.90;0.70;;;12.60;85.90;;;;;;5033030;28;20434;-81
2021/04/10 09:58:35;;;;;;;1.53;0.77;;;12.50;85.80;;;;;;5033246;28;20466;-81
2021/04/10 10:01:06;;;;;;;1.03;0.60;;;12.40;85.30;;;;;;5032857;28;20822;-81
2021/04/10 10:03:32;;;;;;;1.90;0.80;;;12.40;85.40;;;;;;5033111;28;20453;-81
2021/04/10 10:05:58;;;;;;;0.73;0.73;;;12.10;85.00;;;;;;5033259;28;20416;-80
2021/04/10 10:08:27;;;;;;;1.23;0.70;;;12.20;85.60;;;;;;5032971;28;20419;-80
2021/04/10 10:10:57;;;;;;;0.70;0.70;;;12.30;86.30;;;;;;5033125;28;20475;-80
2021/04/10 10:13:25;;;;;;;1.37;0.70;;;12.40;85.80;;;;;;5033221;28;20431;-81
2021/04/10 10:15:53;;;;;;;1.03;0.70;;;12.50;85.50;;;;;;5033215;28;20455;-81
2021/04/10 10:18:21;;;;;;;1.57;0.70;;;12.50;85.00;;;;;;5033260;28;20478;-80
2021/04/10 10:20:55;;;;;;;0.70;0.63;;;12.60;84.70;;;;;;5032935;28;20474;-80
2021/04/10 10:23:23;;;;;;;0.70;0.70;;;12.70;84.80;;;;;;5033118;28;20444;-81
2021/04/10 10:25:49;;;;;;;0.70;0.70;;;13.00;84.60;;;;;;5033325;28;20427;-81
2021/04/10 10:28:17;;;;;;;0.87;0.70;;;13.10;82.90;;;;;;5035410;28;20430;-80
2021/04/10 10:30:44;;;;;;;0.90;0.80;;;13.30;83.20;;;;;;5037221;28;20485;-81
2021/04/10 10:33:10;;;;;;;1.97;0.70;;;13.50;83.40;;;;;;5036639;28;20879;-81
2021/04/10 10:35:37;;;;;;;0.90;0.60;;;13.40;81.40;;;;;;5036581;28;20478;-81
2021/04/10 10:38:05;;;;;;;0.70;0.70;;;13.20;81.50;;;;;;5036663;28;20619;-81
2021/04/10 10:40:31;;;;;;;1.83;0.60;;;13.10;83.00;;;;;;5036296;28;20999;-80
2021/04/10 10:43:03;;;;;;;1.03;0.50;;;13.10;83.00;;;;;;5037486;28;20435;-80
2021/04/10 10:45:41;;;;;;;0.97;0.70;;;13.20;83.00;;;;;;5037031;28;20446;-81
2021/04/10 10:48:18;;;;;;;0.80;0.70;;;13.30;82.60;;;;;;5036192;28;20917;-81
2021/04/10 10:50:44;;;;;;;2.10;1.43;;;13.50;82.30;;;;;;5036631;28;20477;-81
2021/04/10 10:53:19;;;;;;;0.80;0.73;;;13.60;81.20;;;;;;5036512;28;20441;-81
2021/04/10 10:55:57;;;;;;;1.33;0.80;;;13.70;81.00;;;;;;5036577;28;20447;-81
2021/04/10 10:58:24;;;;;;;0.70;0.70;;;13.70;79.40;;;;;;5036064;28;20458;-81
2021/04/10 11:00:51;;;;;;;0.73;0.73;;;13.90;79.20;;;;;;5036017;28;20530;-81
2021/04/10 11:03:21;;;;;;;0.63;0.60;;;14.00;78.10;;;;;;5036289;28;20434;-81
2021/04/10 11:05:49;;;;;;;0.60;0.60;;;14.10;78.70;;;;;;5036292;28;20412;-80
2021/04/10 11:08:16;;;;;;;1.40;0.60;;;14.30;77.70;;;;;;5036245;28;20440;-80
2021/04/10 11:10:43;;;;;;;1.03;0.80;;;14.30;76.60;;;;;;5036259;28;20489;-81
2021/04/10 11:13:12;;;;;;;0.50;0.50;;;14.10;76.20;;;;;;5035972;28;20423;-81
2021/04/10 11:15:38;;;;;;;0.70;0.70;;;14.20;76.50;;;;;;5036189;28;20435;-80
2021/04/10 11:18:06;;;;;;;0.70;0.70;;;14.10;76.10;;;;;;5035756;28;21016;-81
2021/04/10 11:20:34;;;;;;;1.47;0.80;;;14.30;75.50;;;;;;5035679;28;20849;-81
2021/04/10 11:23:05;;;;;;;2.30;1.70;;;14.30;75.80;;;;;;5036012;28;20435;-80
2021/04/10 11:25:46;;;;;;;0.67;0.53;;;14.40;74.90;;;;;;5035789;28;20806;-80
2021/04/10 11:28:26;;;;;;;1.30;0.63;;;14.50;74.00;;;;;;5035866;28;20430;-80
2021/04/10 11:31:06;;;;;;;1.13;0.70;;;14.40;74.00;;;;;;5035750;28;20474;-80
2021/04/10 11:33:34;;;;;;;0.60;0.60;;;14.40;73.80;;;;;;5035703;28;20447;-81
2021/04/10 11:36:01;;;;;;;0.50;0.50;;;14.40;74.30;;;;;;5035363;28;20997;-80
2021/04/10 11:38:27;;;;;;;0.60;0.60;;;14.50;74.30;;;;;;5035031;28;20485;-80
2021/04/10 11:40:54;;;;;;;0.70;0.70;;;14.50;74.20;;;;;;5035849;28;20585;-80
2021/04/10 11:43:20;;;;;;;3.67;0.70;;;14.50;74.70;;;;;;5035290;28;20926;-80
2021/04/10 11:45:49;;;;;;;0.60;0.60;;;14.50;73.20;;;;;;5035584;28;20431;-80
2021/04/10 11:48:17;;;;;;;1.43;0.67;;;14.40;71.40;;;;;;5035499;28;20492;-80
2021/04/10 11:50:46;;;;;;;0.60;0.60;;;14.40;72.70;;;;;;5035230;28;20461;-80
2021/04/10 11:53:18;;;;;;;0.70;0.70;;;14.60;71.00;;;;;;5035410;28;20439;-83
2021/04/10 11:55:44;;;;;;;0.80;0.60;;;14.50;70.40;;;;;;5035433;28;20446;-80
2021/04/10 11:58:11;;;;;;;1.53;0.50;;;14.70;70.90;;;;;;5035066;28;20481;-80
2021/04/10 12:00:37;;;;;;;1.43;0.50;;;14.80;68.70;;;;;;5034871;28;20520;-81
2021/04/10 12:03:08;;;;;;;3.60;0.60;;;15.00;69.20;;;;;;5035277;28;20485;-81
2021/04/10 12:05:39;;;;;;;0.70;0.70;;;15.00;67.50;;;;;;5035236;28;20416;-80
2021/04/10 12:08:22;;;;;;;0.90;0.90;;;15.40;66.80;;;;;;5034839;28;20431;-80
2021/04/10 12:10:51;;;;;;;0.97;0.70;;;15.90;66.10;;;;;;5034686;28;20516;-80
2021/04/10 12:13:18;;;;;;;0.93;0.50;;;16.30;64.10;;;;;;5035298;28;20439;-80
2021/04/10 12:15:49;;;;;;;1.50;0.50;;;16.70;61.90;;;;;;5035006;28;20435;-80
2021/04/10 12:18:16;;;;;;;1.07;0.70;;;16.70;63.00;;;;;;5035129;28;20471;-80
2021/04/10 12:20:43;;;;;;;1.13;0.67;;;16.90;60.50;;;;;;5034831;28;20501;-80
2021/04/10 12:23:09;;;;;;;0.70;0.60;;;16.90;61.20;;;;;;5034866;28;20435;-81
2021/04/10 12:25:37;;;;;;;0.80;0.80;;;16.80;61.60;;;;;;5034495;28;20918;-81
2021/04/10 12:28:04;;;;;;;0.50;0.50;;;16.90;60.20;;;;;;5034522;28;20412;-81
2021/04/10 12:30:31;;;;;;;0.57;0.50;;;16.90;59.50;;;;;;5034912;28;20475;-81
2021/04/10 12:32:57;;;;;;;0.50;0.50;;;16.60;57.30;;;;;;5034771;28;20430;-81
2021/04/10 12:35:24;;;;;;;0.40;0.40;;;16.50;54.70;;;;;;5034303;28;20439;-81
2021/04/10 12:37:50;;;;;;;1.70;0.50;;;16.40;52.90;;;;;;5034480;28;20833;-82
2021/04/10 12:40:17;;;;;;;0.40;0.40;;;16.60;53.90;;;;;;5034478;28;20475;-84
2021/04/10 12:42:44;;;;;;;0.50;0.50;;;16.70;54.00;;;;;;5034614;28;20431;-80
2021/04/10 12:45:11;;;;;;;0.80;0.60;;;17.20;52.40;;;;;;5034471;28;20461;-81
2021/04/10 12:47:38;;;;;;;0.50;0.40;;;17.40;49.00;;;;;;5034072;28;20794;-81
2021/04/10 12:50:06;;;;;;;1.40;0.50;;;17.20;49.00;;;;;;5033575;28;20466;-80
2021/04/10 12:52:33;;;;;;;2.00;0.50;;;17.40;49.70;;;;;;5034295;28;20446;-81
2021/04/10 12:54:59;;;;;;;1.07;0.50;;;17.30;47.50;;;;;;5034262;28;20435;-80
2021/04/10 12:57:25;;;;;;;0.60;0.40;;;17.40;48.60;;;;;;5033916;28;20443;-80
2021/04/10 12:59:53;;;;;;;0.60;0.50;;;17.50;48.30;;;;;;5034091;28;20475;-81